sensor_id;sensor_type;location;lat;lon;timestamp;pressure;altitude;pressure_sealevel;temperature;humidity
50672;BME280;46021;55.882;37.654;2023-05-17T00:01:16;100110.09;;;10.52;55.40
50672;BME280;46021;55.882;37.654;2023-05-17T00:03:45;100100.81;;;10.42;55.90
50672;BME280;46021;55.882;37.654;2023-05-17T00:06:12;100102.63;;;10.38;55.74
50672;BME280;46021;55.882;37.654;2023-05-17T00:08:39;100107.97;;;10.32;55.81
50672;BME280;46021;55.882;37.654;2023-05-17T00:11:07;100104.59;;;10.27;56.13
50672;BME280;46021;55.882;37.654;2023-05-17T00:13:34;100108.16;;;10.23;56.39
50672;BME280;46021;55.882;37.654;2023-05-17T00:16:02;100113.50;;;10.17;56.83
50672;BME280;46021;55.882;37.654;2023-05-17T00:18:30;100114.50;;;10.11;56.73
50672;BME280;46021;55.882;37.654;2023-05-17T00:20:58;100111.19;;;10.04;57.42
50672;BME280;46021;55.882;37.654;2023-05-17T00:23:25;100112.19;;;9.99;57.83
50672;BME280;46021;55.882;37.654;2023-05-17T00:25:52;100105.38;;;9.93;58.11
50672;BME280;46021;55.882;37.654;2023-05-17T00:28:20;100115.88;;;9.88;57.71
50672;BME280;46021;55.882;37.654;2023-05-17T00:30:47;100119.47;;;9.83;58.24
50672;BME280;46021;55.882;37.654;2023-05-17T00:33:14;100123.94;;;9.78;58.90
50672;BME280;46021;55.882;37.654;2023-05-17T00:35:41;100129.19;;;9.74;58.79
50672;BME280;46021;55.882;37.654;2023-05-17T00:38:09;100130.09;;;9.73;58.79
50672;BME280;46021;55.882;37.654;2023-05-17T00:40:37;100126.66;;;9.71;59.22
50672;BME280;46021;55.882;37.654;2023-05-17T00:43:04;100128.44;;;9.69;59.08
50672;BME280;46021;55.882;37.654;2023-05-17T00:45:32;100136.28;;;9.68;59.31
50672;BME280;46021;55.882;37.654;2023-05-17T00:48:01;100126.78;;;9.65;58.78
50672;BME280;46021;55.882;37.654;2023-05-17T00:50:28;100136.38;;;9.63;59.15
50672;BME280;46021;55.882;37.654;2023-05-17T00:52:55;100125.19;;;9.58;59.23
50672;BME280;46021;55.882;37.654;2023-05-17T00:55:25;100127.94;;;9.52;59.37
50672;BME280;46021;55.882;37.654;2023-05-17T00:57:52;100123.69;;;9.48;59.39
50672;BME280;46021;55.882;37.654;2023-05-17T01:00:21;100130.56;;;9.50;59.86
50672;BME280;46021;55.882;37.654;2023-05-17T01:02:48;100127.16;;;9.47;60.09
50672;BME280;46021;55.882;37.654;2023-05-17T01:05:16;100125.50;;;9.43;59.82
50672;BME280;46021;55.882;37.654;2023-05-17T01:07:43;100135.88;;;9.46;60.35
50672;BME280;46021;55.882;37.654;2023-05-17T01:10:11;100133.31;;;9.43;60.35
50672;BME280;46021;55.882;37.654;2023-05-17T01:12:49;100138.53;;;9.41;60.73
50672;BME280;46021;55.882;37.654;2023-05-17T01:15:25;100146.44;;;9.36;61.04
50672;BME280;46021;55.882;37.654;2023-05-17T01:18:01;100143.06;;;9.31;61.05
50672;BME280;46021;55.882;37.654;2023-05-17T01:20:35;100144.03;;;9.26;61.24
50672;BME280;46021;55.882;37.654;2023-05-17T01:23:22;100150.22;;;9.20;60.93
50672;BME280;46021;55.882;37.654;2023-05-17T01:25:56;100148.56;;;9.16;61.40
50672;BME280;46021;55.882;37.654;2023-05-17T01:28:28;100147.75;;;9.14;61.58
50672;BME280;46021;55.882;37.654;2023-05-17T01:30:58;100153.81;;;9.13;62.18
50672;BME280;46021;55.882;37.654;2023-05-17T01:33:30;100144.34;;;9.09;62.00
50672;BME280;46021;55.882;37.654;2023-05-17T01:35:57;100152.25;;;9.06;62.10
50672;BME280;46021;55.882;37.654;2023-05-17T01:38:24;100155.72;;;9.03;62.71
50672;BME280;46021;55.882;37.654;2023-05-17T01:40:55;100156.66;;;9.01;62.20
50672;BME280;46021;55.882;37.654;2023-05-17T01:43:30;100159.22;;;9.02;62.68
50672;BME280;46021;55.882;37.654;2023-05-17T01:46:07;100153.16;;;9.02;62.84
50672;BME280;46021;55.882;37.654;2023-05-17T01:48:39;100160.97;;;9.02;63.02
50672;BME280;46021;55.882;37.654;2023-05-17T01:51:16;100162.63;;;9.06;62.70
50672;BME280;46021;55.882;37.654;2023-05-17T01:53:47;100166.00;;;9.11;63.13
50672;BME280;46021;55.882;37.654;2023-05-17T01:56:20;100162.41;;;9.18;63.21
50672;BME280;46021;55.882;37.654;2023-05-17T01:58:52;100174.38;;;9.28;64.04
50672;BME280;46021;55.882;37.654;2023-05-17T02:01:23;100171.63;;;9.36;63.40
50672;BME280;46021;55.882;37.654;2023-05-17T02:03:53;100178.28;;;9.51;63.34
50672;BME280;46021;55.882;37.654;2023-05-17T02:06:21;100167.59;;;9.65;63.44
50672;BME280;46021;55.882;37.654;2023-05-17T02:08:48;100167.31;;;9.77;62.42
50672;BME280;46021;55.882;37.654;2023-05-17T02:11:15;100168.00;;;9.87;62.76
50672;BME280;46021;55.882;37.654;2023-05-17T02:13:43;100168.72;;;9.93;62.27
50672;BME280;46021;55.882;37.654;2023-05-17T02:16:11;100168.56;;;10.00;62.40
50672;BME280;46021;55.882;37.654;2023-05-17T02:18:39;100178.00;;;10.05;62.43
50672;BME280;46021;55.882;37.654;2023-05-17T02:21:06;100179.69;;;10.09;62.45
50672;BME280;46021;55.882;37.654;2023-05-17T02:23:35;100180.41;;;10.14;62.20
50672;BME280;46021;55.882;37.654;2023-05-17T02:26:02;100185.41;;;10.25;62.28
50672;BME280;46021;55.882;37.654;2023-05-17T02:28:29;100182.66;;;10.33;62.82
50672;BME280;46021;55.882;37.654;2023-05-17T02:30:57;100184.06;;;10.46;62.30
50672;BME280;46021;55.882;37.654;2023-05-17T02:33:26;100183.75;;;10.60;62.45
50672;BME280;46021;55.882;37.654;2023-05-17T02:35:55;100187.00;;;10.70;62.04
50672;BME280;46021;55.882;37.654;2023-05-17T02:38:22;100185.22;;;10.72;62.12
50672;BME280;46021;55.882;37.654;2023-05-17T02:40:49;100183.34;;;10.77;61.73
50672;BME280;46021;55.882;37.654;2023-05-17T02:43:16;100188.31;;;10.86;62.07
50672;BME280;46021;55.882;37.654;2023-05-17T02:45:43;100183.59;;;11.02;62.52
50672;BME280;46021;55.882;37.654;2023-05-17T02:48:12;100180.03;;;11.38;62.50
50672;BME280;46021;55.882;37.654;2023-05-17T02:50:41;100178.00;;;11.80;62.43
50672;BME280;46021;55.882;37.654;2023-05-17T02:53:09;100179.19;;;12.28;62.29
50672;BME280;46021;55.882;37.654;2023-05-17T02:55:36;100183.84;;;12.75;61.27
50672;BME280;46021;55.882;37.654;2023-05-17T02:58:03;100174.47;;;13.19;59.94
50672;BME280;46021;55.882;37.654;2023-05-17T03:00:32;100175.53;;;13.64;59.92
50672;BME280;46021;55.882;37.654;2023-05-17T03:02:59;100183.69;;;14.03;59.09
50672;BME280;46021;55.882;37.654;2023-05-17T03:05:26;100180.91;;;14.30;57.27
50672;BME280;46021;55.882;37.654;2023-05-17T03:07:55;100188.25;;;14.66;57.05
50672;BME280;46021;55.882;37.654;2023-05-17T03:10:22;100185.03;;;15.02;56.21
50672;BME280;46021;55.882;37.654;2023-05-17T03:12:49;100180.03;;;15.37;55.09
50672;BME280;46021;55.882;37.654;2023-05-17T03:15:20;100178.44;;;15.74;54.42
50672;BME280;46021;55.882;37.654;2023-05-17T03:17:47;100182.25;;;16.05;54.38
50672;BME280;46021;55.882;37.654;2023-05-17T03:20:16;100173.88;;;16.15;52.41
50672;BME280;46021;55.882;37.654;2023-05-17T03:22:45;100180.09;;;16.51;52.39
50672;BME280;46021;55.882;37.654;2023-05-17T03:25:14;100186.78;;;16.75;51.59
50672;BME280;46021;55.882;37.654;2023-05-17T03:27:41;100188.25;;;17.00;50.26
50672;BME280;46021;55.882;37.654;2023-05-17T03:30:10;100185.81;;;16.95;49.30
50672;BME280;46021;55.882;37.654;2023-05-17T03:32:37;100188.28;;;16.81;48.04
50672;BME280;46021;55.882;37.654;2023-05-17T03:35:06;100186.16;;;16.70;49.22
50672;BME280;46021;55.882;37.654;2023-05-17T03:37:34;100185.84;;;16.76;48.98
50672;BME280;46021;55.882;37.654;2023-05-17T03:40:02;100185.81;;;17.30;49.52
50672;BME280;46021;55.882;37.654;2023-05-17T03:42:32;100197.31;;;17.63;47.70
50672;BME280;46021;55.882;37.654;2023-05-17T03:44:59;100195.09;;;18.20;48.01
50672;BME280;46021;55.882;37.654;2023-05-17T03:47:27;100205.47;;;18.87;48.06
50672;BME280;46021;55.882;37.654;2023-05-17T03:49:54;100196.25;;;19.39;46.16
50672;BME280;46021;55.882;37.654;2023-05-17T03:52:22;100184.66;;;19.99;46.49
50672;BME280;46021;55.882;37.654;2023-05-17T03:54:49;100191.50;;;20.57;44.86
50672;BME280;46021;55.882;37.654;2023-05-17T03:57:16;100203.44;;;21.05;43.41
50672;BME280;46021;55.882;37.654;2023-05-17T03:59:45;100197.44;;;21.41;42.57
50672;BME280;46021;55.882;37.654;2023-05-17T04:02:15;100195.31;;;21.85;41.71
50672;BME280;46021;55.882;37.654;2023-05-17T04:04:48;100193.75;;;22.19;40.34
50672;BME280;46021;55.882;37.654;2023-05-17T04:07:16;100207.72;;;22.71;40.64
50672;BME280;46021;55.882;37.654;2023-05-17T04:09:43;100197.50;;;23.13;37.61
50672;BME280;46021;55.882;37.654;2023-05-17T04:12:10;100196.63;;;23.48;38.79
50672;BME280;46021;55.882;37.654;2023-05-17T04:14:39;100200.13;;;23.60;37.56
50672;BME280;46021;55.882;37.654;2023-05-17T04:17:07;100203.78;;;23.81;37.07
50672;BME280;46021;55.882;37.654;2023-05-17T04:19:34;100211.28;;;23.99;35.89
50672;BME280;46021;55.882;37.654;2023-05-17T04:22:02;100207.38;;;24.25;35.52
50672;BME280;46021;55.882;37.654;2023-05-17T04:24:29;100215.69;;;24.43;34.94
50672;BME280;46021;55.882;37.654;2023-05-17T04:26:56;100214.97;;;24.85;34.20
50672;BME280;46021;55.882;37.654;2023-05-17T04:29:24;100211.81;;;25.12;34.02
50672;BME280;46021;55.882;37.654;2023-05-17T04:31:51;100210.56;;;25.27;34.02
50672;BME280;46021;55.882;37.654;2023-05-17T04:34:20;100208.50;;;25.20;33.64
50672;BME280;46021;55.882;37.654;2023-05-17T04:36:48;100208.97;;;25.25;32.97
50672;BME280;46021;55.882;37.654;2023-05-17T04:39:16;100209.75;;;25.37;32.55
50672;BME280;46021;55.882;37.654;2023-05-17T04:41:43;100211.31;;;25.18;32.40
50672;BME280;46021;55.882;37.654;2023-05-17T04:44:13;100212.13;;;25.61;32.06
50672;BME280;46021;55.882;37.654;2023-05-17T04:46:41;100216.47;;;25.83;31.69
50672;BME280;46021;55.882;37.654;2023-05-17T04:49:09;100217.00;;;25.77;31.44
50672;BME280;46021;55.882;37.654;2023-05-17T04:51:37;100201.59;;;25.90;31.05
50672;BME280;46021;55.882;37.654;2023-05-17T04:54:05;100202.28;;;26.23;31.06
50672;BME280;46021;55.882;37.654;2023-05-17T04:56:35;100211.19;;;26.53;30.71
50672;BME280;46021;55.882;37.654;2023-05-17T04:59:04;100211.06;;;26.54;30.18
50672;BME280;46021;55.882;37.654;2023-05-17T05:01:32;100211.09;;;26.93;30.01
50672;BME280;46021;55.882;37.654;2023-05-17T05:04:00;100198.84;;;27.30;29.87
50672;BME280;46021;55.882;37.654;2023-05-17T05:06:36;100206.56;;;27.33;28.90
50672;BME280;46021;55.882;37.654;2023-05-17T05:09:04;100200.59;;;27.58;28.82
50672;BME280;46021;55.882;37.654;2023-05-17T05:11:35;100202.75;;;27.92;28.65
50672;BME280;46021;55.882;37.654;2023-05-17T05:14:04;100205.72;;;28.17;28.59
50672;BME280;46021;55.882;37.654;2023-05-17T05:16:31;100211.97;;;28.08;27.95
50672;BME280;46021;55.882;37.654;2023-05-17T05:18:58;100217.06;;;28.01;27.48
50672;BME280;46021;55.882;37.654;2023-05-17T05:21:29;100213.59;;;27.91;27.25
50672;BME280;46021;55.882;37.654;2023-05-17T05:23:58;100211.00;;;27.99;27.25
50672;BME280;46021;55.882;37.654;2023-05-17T05:26:25;100218.72;;;28.12;27.21
50672;BME280;46021;55.882;37.654;2023-05-17T05:28:55;100214.03;;;28.42;27.17
50672;BME280;46021;55.882;37.654;2023-05-17T05:31:23;100213.41;;;28.48;26.87
50672;BME280;46021;55.882;37.654;2023-05-17T05:33:52;100212.38;;;28.31;26.68
50672;BME280;46021;55.882;37.654;2023-05-17T05:36:19;100214.06;;;28.77;26.30
50672;BME280;46021;55.882;37.654;2023-05-17T05:38:47;100214.63;;;29.07;26.27
50672;BME280;46021;55.882;37.654;2023-05-17T05:41:16;100205.13;;;29.31;25.70
50672;BME280;46021;55.882;37.654;2023-05-17T05:43:43;100207.97;;;29.82;25.55
50672;BME280;46021;55.882;37.654;2023-05-17T05:46:10;100214.09;;;29.40;24.78
50672;BME280;46021;55.882;37.654;2023-05-17T05:48:39;100217.34;;;29.51;24.94
50672;BME280;46021;55.882;37.654;2023-05-17T05:51:07;100214.09;;;29.40;24.73
50672;BME280;46021;55.882;37.654;2023-05-17T05:53:38;100216.00;;;29.55;24.51
50672;BME280;46021;55.882;37.654;2023-05-17T05:56:05;100217.66;;;29.04;24.15
50672;BME280;46021;55.882;37.654;2023-05-17T05:58:35;100209.44;;;28.88;24.47
50672;BME280;46021;55.882;37.654;2023-05-17T06:01:03;100210.75;;;28.20;24.32
50672;BME280;46021;55.882;37.654;2023-05-17T06:03:31;100218.09;;;27.80;24.75
50672;BME280;46021;55.882;37.654;2023-05-17T06:05:59;100212.13;;;27.59;25.13
50672;BME280;46021;55.882;37.654;2023-05-17T06:08:26;100213.03;;;27.40;25.01
50672;BME280;46021;55.882;37.654;2023-05-17T06:10:53;100214.31;;;27.16;24.68
50672;BME280;46021;55.882;37.654;2023-05-17T06:13:20;100220.28;;;26.21;24.77
50672;BME280;46021;55.882;37.654;2023-05-17T06:15:49;100224.00;;;25.05;25.88
50672;BME280;46021;55.882;37.654;2023-05-17T06:18:16;100226.41;;;23.98;26.73
50672;BME280;46021;55.882;37.654;2023-05-17T06:20:43;100223.72;;;23.06;27.89
50672;BME280;46021;55.882;37.654;2023-05-17T06:23:10;100230.44;;;22.51;29.00
50672;BME280;46021;55.882;37.654;2023-05-17T06:25:37;100223.03;;;21.80;30.77
50672;BME280;46021;55.882;37.654;2023-05-17T06:28:05;100227.44;;;21.41;30.70
50672;BME280;46021;55.882;37.654;2023-05-17T06:30:33;100226.97;;;20.96;31.14
50672;BME280;46021;55.882;37.654;2023-05-17T06:33:02;100218.75;;;20.74;30.61
50672;BME280;46021;55.882;37.654;2023-05-17T06:35:30;100220.94;;;20.53;31.71
50672;BME280;46021;55.882;37.654;2023-05-17T06:37:57;100219.59;;;20.33;32.01
50672;BME280;46021;55.882;37.654;2023-05-17T06:40:24;100214.41;;;20.17;32.74
50672;BME280;46021;55.882;37.654;2023-05-17T06:42:51;100217.16;;;20.01;32.97
50672;BME280;46021;55.882;37.654;2023-05-17T06:45:18;100224.53;;;19.96;32.76
50672;BME280;46021;55.882;37.654;2023-05-17T06:47:46;100227.22;;;19.81;33.56
50672;BME280;46021;55.882;37.654;2023-05-17T06:50:15;100238.72;;;19.80;33.30
50672;BME280;46021;55.882;37.654;2023-05-17T06:52:42;100235.06;;;19.53;33.38
50672;BME280;46021;55.882;37.654;2023-05-17T06:55:09;100226.75;;;19.30;33.47
50672;BME280;46021;55.882;37.654;2023-05-17T06:57:36;100243.63;;;19.27;33.75
50672;BME280;46021;55.882;37.654;2023-05-17T07:00:04;100225.56;;;19.20;34.05
50672;BME280;46021;55.882;37.654;2023-05-17T07:02:35;100228.59;;;19.28;33.74
50672;BME280;46021;55.882;37.654;2023-05-17T07:05:04;100234.09;;;19.25;34.34
50672;BME280;46021;55.882;37.654;2023-05-17T07:07:33;100233.88;;;19.28;33.96
50672;BME280;46021;55.882;37.654;2023-05-17T07:10:00;100228.06;;;19.37;34.01
50672;BME280;46021;55.882;37.654;2023-05-17T07:12:29;100226.97;;;19.41;33.99
50672;BME280;46021;55.882;37.654;2023-05-17T07:14:56;100229.41;;;19.44;34.50
50672;BME280;46021;55.882;37.654;2023-05-17T07:17:24;100232.25;;;19.56;34.31
50672;BME280;46021;55.882;37.654;2023-05-17T07:19:51;100226.97;;;19.56;34.03
50672;BME280;46021;55.882;37.654;2023-05-17T07:22:18;100234.88;;;19.41;33.76
50672;BME280;46021;55.882;37.654;2023-05-17T07:24:47;100226.53;;;19.33;33.44
50672;BME280;46021;55.882;37.654;2023-05-17T07:27:17;100220.41;;;19.33;33.21
50672;BME280;46021;55.882;37.654;2023-05-17T07:29:44;100219.97;;;19.40;33.47
50672;BME280;46021;55.882;37.654;2023-05-17T07:32:11;100215.91;;;19.49;33.79
50672;BME280;46021;55.882;37.654;2023-05-17T07:34:39;100212.06;;;19.55;33.50
50672;BME280;46021;55.882;37.654;2023-05-17T07:37:06;100204.50;;;19.63;33.76
50672;BME280;46021;55.882;37.654;2023-05-17T07:39:33;100204.31;;;19.66;33.52
50672;BME280;46021;55.882;37.654;2023-05-17T07:42:01;100208.13;;;19.76;33.72
50672;BME280;46021;55.882;37.654;2023-05-17T07:44:29;100212.00;;;19.85;33.85
50672;BME280;46021;55.882;37.654;2023-05-17T07:46:56;100205.91;;;19.97;33.47
50672;BME280;46021;55.882;37.654;2023-05-17T07:49:23;100211.78;;;20.02;33.09
50672;BME280;46021;55.882;37.654;2023-05-17T07:51:50;100218.22;;;19.98;33.40
50672;BME280;46021;55.882;37.654;2023-05-17T07:54:21;100221.34;;;19.91;33.07
50672;BME280;46021;55.882;37.654;2023-05-17T07:56:49;100209.81;;;19.92;33.51
50672;BME280;46021;55.882;37.654;2023-05-17T07:59:19;100210.94;;;20.02;33.58
50672;BME280;46021;55.882;37.654;2023-05-17T08:01:46;100214.88;;;20.09;32.97
50672;BME280;46021;55.882;37.654;2023-05-17T08:04:14;100204.69;;;20.03;33.08
50672;BME280;46021;55.882;37.654;2023-05-17T08:06:41;100200.25;;;20.03;33.20
50672;BME280;46021;55.882;37.654;2023-05-17T08:09:10;100207.16;;;19.92;33.18
50672;BME280;46021;55.882;37.654;2023-05-17T08:11:37;100214.34;;;19.90;33.15
50672;BME280;46021;55.882;37.654;2023-05-17T08:14:11;100206.31;;;19.77;33.29
50672;BME280;46021;55.882;37.654;2023-05-17T08:16:41;100212.44;;;19.92;33.09
50672;BME280;46021;55.882;37.654;2023-05-17T08:19:10;100213.78;;;19.99;33.28
50672;BME280;46021;55.882;37.654;2023-05-17T08:21:39;100207.16;;;20.06;33.00
50672;BME280;46021;55.882;37.654;2023-05-17T08:24:06;100214.31;;;20.18;33.16
50672;BME280;46021;55.882;37.654;2023-05-17T08:26:34;100201.22;;;20.30;33.27
50672;BME280;46021;55.882;37.654;2023-05-17T08:29:01;100188.91;;;20.43;32.71
50672;BME280;46021;55.882;37.654;2023-05-17T08:31:29;100200.31;;;20.58;32.84
50672;BME280;46021;55.882;37.654;2023-05-17T08:33:58;100198.28;;;20.76;32.36
50672;BME280;46021;55.882;37.654;2023-05-17T08:36:25;100190.66;;;20.84;32.00
50672;BME280;46021;55.882;37.654;2023-05-17T08:38:53;100193.25;;;20.98;32.07
50672;BME280;46021;55.882;37.654;2023-05-17T08:41:20;100189.69;;;21.25;32.23
50672;BME280;46021;55.882;37.654;2023-05-17T08:43:47;100186.03;;;21.53;31.91
50672;BME280;46021;55.882;37.654;2023-05-17T08:46:17;100190.75;;;21.87;31.55
50672;BME280;46021;55.882;37.654;2023-05-17T08:48:49;100177.34;;;22.62;31.02
50672;BME280;46021;55.882;37.654;2023-05-17T08:51:18;100183.69;;;24.00;30.39
50672;BME280;46021;55.882;37.654;2023-05-17T08:53:47;100184.97;;;25.25;28.15
50672;BME280;46021;55.882;37.654;2023-05-17T08:56:16;100189.41;;;26.67;28.04
50672;BME280;46021;55.882;37.654;2023-05-17T08:58:46;100174.84;;;28.13;26.40
50672;BME280;46021;55.882;37.654;2023-05-17T09:01:15;100189.66;;;29.25;24.51
50672;BME280;46021;55.882;37.654;2023-05-17T09:03:45;100183.34;;;30.03;23.77
50672;BME280;46021;55.882;37.654;2023-05-17T09:06:15;100180.47;;;30.55;23.20
50672;BME280;46021;55.882;37.654;2023-05-17T09:08:44;100188.22;;;30.75;22.36
50672;BME280;46021;55.882;37.654;2023-05-17T09:11:23;100190.56;;;30.69;22.02
50672;BME280;46021;55.882;37.654;2023-05-17T09:13:51;100192.66;;;30.25;21.51
50672;BME280;46021;55.882;37.654;2023-05-17T09:16:18;100177.00;;;30.12;21.69
50672;BME280;46021;55.882;37.654;2023-05-17T09:18:53;100180.03;;;30.17;21.52
50672;BME280;46021;55.882;37.654;2023-05-17T09:21:21;100177.97;;;30.78;22.19
50672;BME280;46021;55.882;37.654;2023-05-17T09:23:50;100179.13;;;31.17;21.64
50672;BME280;46021;55.882;37.654;2023-05-17T09:26:18;100177.31;;;31.01;21.85
50672;BME280;46021;55.882;37.654;2023-05-17T09:28:45;100161.53;;;31.62;21.34
50672;BME280;46021;55.882;37.654;2023-05-17T09:31:15;100157.66;;;32.04;21.30
50672;BME280;46021;55.882;37.654;2023-05-17T09:33:43;100157.81;;;32.34;20.83
50672;BME280;46021;55.882;37.654;2023-05-17T09:36:15;100152.69;;;32.70;20.18
50672;BME280;46021;55.882;37.654;2023-05-17T09:38:53;100150.22;;;32.98;19.91
50672;BME280;46021;55.882;37.654;2023-05-17T09:41:20;100137.13;;;33.10;19.83
50672;BME280;46021;55.882;37.654;2023-05-17T09:43:48;100165.72;;;33.05;19.55
50672;BME280;46021;55.882;37.654;2023-05-17T09:46:15;100161.88;;;32.61;19.66
50672;BME280;46021;55.882;37.654;2023-05-17T09:48:43;100161.84;;;32.38;19.94
50672;BME280;46021;55.882;37.654;2023-05-17T09:51:11;100155.59;;;32.69;20.24
50672;BME280;46021;55.882;37.654;2023-05-17T09:53:38;100147.34;;;33.00;19.65
50672;BME280;46021;55.882;37.654;2023-05-17T09:56:09;100154.13;;;33.49;19.27
50672;BME280;46021;55.882;37.654;2023-05-17T09:58:37;100155.88;;;33.27;19.37
50672;BME280;46021;55.882;37.654;2023-05-17T10:01:04;100150.09;;;32.77;18.96
50672;BME280;46021;55.882;37.654;2023-05-17T10:03:35;100139.97;;;32.79;19.35
50672;BME280;46021;55.882;37.654;2023-05-17T10:06:05;100142.38;;;33.27;19.19
50672;BME280;46021;55.882;37.654;2023-05-17T10:08:34;100145.34;;;33.17;19.59
50672;BME280;46021;55.882;37.654;2023-05-17T10:11:08;100139.78;;;33.48;18.66
50672;BME280;46021;55.882;37.654;2023-05-17T10:13:39;100139.66;;;33.12;18.96
50672;BME280;46021;55.882;37.654;2023-05-17T10:16:09;100132.84;;;33.01;19.25
50672;BME280;46021;55.882;37.654;2023-05-17T10:18:39;100139.38;;;33.07;19.12
50672;BME280;46021;55.882;37.654;2023-05-17T10:21:07;100133.72;;;33.31;19.34
50672;BME280;46021;55.882;37.654;2023-05-17T10:23:36;100137.72;;;32.36;18.74
50672;BME280;46021;55.882;37.654;2023-05-17T10:26:05;100134.63;;;31.54;19.61
50672;BME280;46021;55.882;37.654;2023-05-17T10:28:35;100128.19;;;31.94;19.35
50672;BME280;46021;55.882;37.654;2023-05-17T10:31:03;100121.00;;;32.18;19.55
50672;BME280;46021;55.882;37.654;2023-05-17T10:33:31;100124.31;;;32.28;19.84
50672;BME280;46021;55.882;37.654;2023-05-17T10:35:58;100127.47;;;32.32;19.83
50672;BME280;46021;55.882;37.654;2023-05-17T10:38:28;100128.75;;;31.81;19.66
50672;BME280;46021;55.882;37.654;2023-05-17T10:40:56;100119.44;;;31.61;19.82
50672;BME280;46021;55.882;37.654;2023-05-17T10:43:24;100124.91;;;31.76;19.64
50672;BME280;46021;55.882;37.654;2023-05-17T10:45:56;100120.00;;;31.32;19.83
50672;BME280;46021;55.882;37.654;2023-05-17T10:48:26;100124.28;;;31.01;19.99
50672;BME280;46021;55.882;37.654;2023-05-17T10:50:55;100119.16;;;31.47;20.30
50672;BME280;46021;55.882;37.654;2023-05-17T10:53:22;100115.00;;;31.76;19.93
50672;BME280;46021;55.882;37.654;2023-05-17T10:55:50;100111.28;;;32.32;20.03
50672;BME280;46021;55.882;37.654;2023-05-17T10:58:18;100115.13;;;32.60;19.54
50672;BME280;46021;55.882;37.654;2023-05-17T11:00:47;100116.44;;;32.88;19.40
50672;BME280;46021;55.882;37.654;2023-05-17T11:03:18;100098.94;;;32.37;19.08
50672;BME280;46021;55.882;37.654;2023-05-17T11:06:15;100103.00;;;31.47;19.27
50672;BME280;46021;55.882;37.654;2023-05-17T11:11:32;100104.75;;;30.83;20.47
50672;BME280;46021;55.882;37.654;2023-05-17T11:14:03;100092.75;;;31.35;20.29
50672;BME280;46021;55.882;37.654;2023-05-17T11:16:34;100087.84;;;31.30;20.51
50672;BME280;46021;55.882;37.654;2023-05-17T11:19:07;100084.81;;;31.50;20.09
50672;BME280;46021;55.882;37.654;2023-05-17T11:21:35;100098.28;;;31.50;19.96
50672;BME280;46021;55.882;37.654;2023-05-17T11:24:15;100105.25;;;30.86;20.02
50672;BME280;46021;55.882;37.654;2023-05-17T11:26:44;100094.00;;;30.25;20.33
50672;BME280;46021;55.882;37.654;2023-05-17T11:29:11;100105.09;;;30.30;20.62
50672;BME280;46021;55.882;37.654;2023-05-17T11:31:43;100095.63;;;30.02;20.58
50672;BME280;46021;55.882;37.654;2023-05-17T11:34:12;100095.69;;;29.33;21.08
50672;BME280;46021;55.882;37.654;2023-05-17T11:36:48;100085.88;;;29.58;21.29
50672;BME280;46021;55.882;37.654;2023-05-17T11:39:19;100084.00;;;29.85;21.15
50672;BME280;46021;55.882;37.654;2023-05-17T11:41:48;100075.44;;;29.81;21.11
50672;BME280;46021;55.882;37.654;2023-05-17T11:44:21;100078.84;;;30.16;21.71
50672;BME280;46021;55.882;37.654;2023-05-17T11:46:51;100079.53;;;30.10;21.37
50672;BME280;46021;55.882;37.654;2023-05-17T11:49:21;100079.56;;;30.43;20.91
50672;BME280;46021;55.882;37.654;2023-05-17T11:51:49;100077.03;;;30.33;20.68
50672;BME280;46021;55.882;37.654;2023-05-17T11:54:16;100069.75;;;30.09;20.92
50672;BME280;46021;55.882;37.654;2023-05-17T11:56:43;100068.56;;;30.03;21.00
50672;BME280;46021;55.882;37.654;2023-05-17T11:59:10;100071.38;;;29.77;20.95
50672;BME280;46021;55.882;37.654;2023-05-17T12:01:44;100068.06;;;29.83;21.36
50672;BME280;46021;55.882;37.654;2023-05-17T12:04:12;100064.22;;;30.02;21.46
50672;BME280;46021;55.882;37.654;2023-05-17T12:06:41;100051.94;;;29.91;21.37
50672;BME280;46021;55.882;37.654;2023-05-17T12:09:09;100038.69;;;29.47;21.05
50672;BME280;46021;55.882;37.654;2023-05-17T12:11:40;100053.09;;;28.77;22.48
50672;BME280;46021;55.882;37.654;2023-05-17T12:14:08;100051.03;;;28.35;22.62
50672;BME280;46021;55.882;37.654;2023-05-17T12:16:35;100042.56;;;28.22;22.55
50672;BME280;46021;55.882;37.654;2023-05-17T12:19:15;100038.59;;;28.26;22.92
50672;BME280;46021;55.882;37.654;2023-05-17T12:21:44;100042.03;;;27.73;23.63
50672;BME280;46021;55.882;37.654;2023-05-17T12:24:12;100024.25;;;27.99;23.06
50672;BME280;46021;55.882;37.654;2023-05-17T12:26:42;100028.34;;;28.04;23.22
50672;BME280;46021;55.882;37.654;2023-05-17T12:29:09;100030.94;;;27.95;23.15
50672;BME280;46021;55.882;37.654;2023-05-17T12:31:39;100033.03;;;27.74;23.34
50672;BME280;46021;55.882;37.654;2023-05-17T12:34:08;100026.13;;;27.53;23.50
50672;BME280;46021;55.882;37.654;2023-05-17T12:36:37;100016.09;;;27.28;23.78
50672;BME280;46021;55.882;37.654;2023-05-17T12:39:07;100030.00;;;27.03;24.00
50672;BME280;46021;55.882;37.654;2023-05-17T12:41:35;100032.88;;;26.82;23.76
50672;BME280;46021;55.882;37.654;2023-05-17T12:44:04;100016.88;;;26.63;24.04
50672;BME280;46021;55.882;37.654;2023-05-17T12:46:33;100019.13;;;26.58;24.36
50672;BME280;46021;55.882;37.654;2023-05-17T12:49:05;100013.22;;;26.64;24.18
50672;BME280;46021;55.882;37.654;2023-05-17T12:51:39;100002.53;;;26.64;24.08